Time;durP1;ratioP1;P1;durP2;ratioP2;P2;SDS_P1;SDS_P2;PMS_P1;PMS_P2;Temp;Humidity;BMP_temperature;BMP_pressure;BME280_temperature;BME280_humidity;BME280_pressure;Samples;Min_cycle;Max_cycle;Signal;HPM_P1;HPM_P2
2024/01/07 00:01:56;;;;;;;8.85;5.82;;;3.60;99.90;;;;;;5002892;28;20456;-34
2024/01/07 00:04:22;;;;;;;8.40;5.82;;;3.60;99.90;;;;;;5005925;28;20029;-32
2024/01/07 00:06:47;;;;;;;7.40;5.13;;;3.60;99.90;;;;;;5003813;28;20092;-31
2024/01/07 00:09:13;;;;;;;9.40;5.43;;;3.60;99.90;;;;;;5006677;28;20126;-33
2024/01/07 00:11:39;;;;;;;10.27;5.53;;;3.70;99.90;;;;;;5005069;28;20481;-33
2024/01/07 00:14:05;;;;;;;10.45;6.60;;;3.70;99.90;;;;;;5007235;28;20438;-32
2024/01/07 00:16:31;;;;;;;7.72;5.30;;;3.70;99.90;;;;;;5006250;28;20034;-35
2024/01/07 00:18:56;;;;;;;10.85;6.25;;;3.60;99.90;;;;;;5005404;28;20618;-33
2024/01/07 00:21:22;;;;;;;14.18;6.07;;;3.60;99.90;;;;;;5005349;28;20022;-33
2024/01/07 00:23:47;;;;;;;6.70;5.20;;;3.60;99.90;;;;;;5004380;28;20384;-31
2024/01/07 00:26:13;;;;;;;9.18;5.82;;;3.60;99.90;;;;;;5004251;28;20033;-33
2024/01/07 00:28:39;;;;;;;7.72;5.75;;;3.50;99.90;;;;;;5008105;28;20042;-33
2024/01/07 00:31:04;;;;;;;11.50;6.25;;;3.60;99.90;;;;;;5004062;28;20046;-33
2024/01/07 00:33:34;;;;;;;8.55;5.28;;;3.60;99.90;;;;;;5007085;28;20461;-34
2024/01/07 00:36:00;;;;;;;8.02;5.65;;;3.50;99.90;;;;;;5006867;28;20028;-32
2024/01/07 00:38:25;;;;;;;8.18;5.60;;;3.60;99.90;;;;;;5004493;28;20029;-32
2024/01/07 00:40:51;;;;;;;8.40;5.68;;;3.50;99.90;;;;;;5005962;28;20491;-33
2024/01/07 00:43:16;;;;;;;9.52;5.82;;;3.50;99.90;;;;;;4999942;28;20572;-40
2024/01/07 00:45:42;;;;;;;12.45;6.95;;;3.50;99.90;;;;;;5003256;28;20424;-37
2024/01/07 00:48:08;;;;;;;10.80;6.40;;;3.50;99.90;;;;;;5002646;28;20025;-38
2024/01/07 00:50:33;;;;;;;11.18;6.10;;;3.50;99.90;;;;;;5002504;28;20038;-37
2024/01/07 00:52:59;;;;;;;8.77;6.00;;;3.40;99.90;;;;;;4985170;28;20080;-41
2024/01/07 00:55:24;;;;;;;18.02;8.15;;;3.50;99.90;;;;;;5004876;28;20170;-42
2024/01/07 00:57:50;;;;;;;12.85;6.32;;;3.50;99.90;;;;;;5004079;28;20029;-40
2024/01/07 01:00:16;;;;;;;11.93;6.35;;;3.60;99.90;;;;;;5002704;28;20029;-39
2024/01/07 01:02:42;;;;;;;10.70;6.15;;;3.60;99.90;;;;;;5003917;28;20499;-33
2024/01/07 01:05:08;;;;;;;10.45;6.50;;;3.40;99.90;;;;;;5002934;28;20030;-37
2024/01/07 01:07:33;;;;;;;10.23;6.80;;;3.50;99.90;;;;;;5002742;28;20045;-32
2024/01/07 01:09:59;;;;;;;12.85;7.10;;;3.40;99.90;;;;;;5003682;28;20033;-34
2024/01/07 01:12:24;;;;;;;12.30;6.55;;;3.50;99.90;;;;;;5003126;28;20364;-33
2024/01/07 01:14:50;;;;;;;12.40;6.97;;;3.50;99.90;;;;;;5003846;28;20487;-34
2024/01/07 01:17:16;;;;;;;11.02;6.90;;;3.40;99.90;;;;;;4993835;28;20034;-34
2024/01/07 01:19:41;;;;;;;14.15;7.32;;;3.40;99.90;;;;;;4999401;28;20513;-34
2024/01/07 01:22:07;;;;;;;12.93;8.32;;;3.30;99.90;;;;;;5001125;28;20041;-33
2024/01/07 01:24:32;;;;;;;9.45;6.47;;;3.30;99.90;;;;;;4996699;28;20519;-34
2024/01/07 01:26:58;;;;;;;12.43;7.15;;;3.30;99.90;;;;;;4998869;28;20074;-33
2024/01/07 01:29:24;;;;;;;11.45;7.13;;;3.30;99.90;;;;;;5001777;28;20038;-32
2024/01/07 01:31:49;;;;;;;18.08;7.47;;;3.30;99.90;;;;;;4998020;28;20054;-33
2024/01/07 01:34:15;;;;;;;9.23;6.47;;;3.20;99.90;;;;;;5003317;28;20491;-34
2024/01/07 01:36:41;;;;;;;18.70;7.53;;;3.30;99.90;;;;;;5003795;28;20033;-34
2024/01/07 01:39:06;;;;;;;11.32;6.97;;;3.30;99.90;;;;;;5000697;28;20084;-34
2024/01/07 01:41:33;;;;;;;10.90;6.38;;;3.20;99.90;;;;;;5002736;28;20019;-32
2024/01/07 01:44:00;;;;;;;12.15;6.97;;;3.20;99.90;;;;;;4997630;28;20038;-33
2024/01/07 01:46:25;;;;;;;9.88;6.00;;;3.20;99.90;;;;;;5000628;28;20030;-33
2024/01/07 01:48:51;;;;;;;10.18;6.13;;;3.20;99.90;;;;;;4993645;28;20145;-33
2024/01/07 01:51:18;;;;;;;9.15;6.43;;;3.20;99.90;;;;;;5002508;28;20026;-40
2024/01/07 01:53:45;;;;;;;9.95;6.28;;;3.20;99.90;;;;;;4996949;28;20656;-38
2024/01/07 01:56:11;;;;;;;10.48;6.70;;;3.20;99.90;;;;;;4999347;28;20026;-38
2024/01/07 01:58:36;;;;;;;10.60;6.60;;;3.20;99.90;;;;;;4995344;28;20034;-38
2024/01/07 02:01:03;;;;;;;7.85;5.50;;;3.20;99.90;;;;;;4997778;28;20038;-40
2024/01/07 02:03:29;;;;;;;9.48;6.03;;;3.20;99.90;;;;;;4999310;28;20033;-38
2024/01/07 02:05:56;;;;;;;10.05;5.88;;;3.10;99.90;;;;;;4997806;28;20601;-40
2024/01/07 02:08:22;;;;;;;8.68;5.88;;;3.20;99.90;;;;;;4999966;28;20038;-40
2024/01/07 02:10:47;;;;;;;11.35;6.90;;;3.10;99.90;;;;;;5002105;28;20034;-39
2024/01/07 02:13:13;;;;;;;11.55;7.57;;;3.10;99.90;;;;;;5001772;28;20034;-39
2024/01/07 02:15:39;;;;;;;10.98;6.15;;;3.10;99.90;;;;;;4999861;28;20047;-40
2024/01/07 02:18:04;;;;;;;11.93;6.80;;;3.10;99.90;;;;;;5001694;28;20022;-39
2024/01/07 02:20:30;;;;;;;13.35;6.78;;;3.10;99.90;;;;;;5002915;28;20038;-38
2024/01/07 02:22:59;;;;;;;12.38;6.35;;;3.10;99.90;;;;;;4999257;28;20028;-38
2024/01/07 02:25:24;;;;;;;10.63;6.88;;;3.00;99.90;;;;;;5002526;28;20033;-39
2024/01/07 02:27:50;;;;;;;9.45;6.50;;;3.00;99.90;;;;;;5002139;28;20025;-38
2024/01/07 02:30:17;;;;;;;11.32;6.57;;;3.00;99.90;;;;;;4998500;28;20030;-39
2024/01/07 02:32:42;;;;;;;11.57;7.00;;;3.00;99.90;;;;;;5000679;28;20125;-40
2024/01/07 02:35:08;;;;;;;10.02;6.72;;;3.00;99.90;;;;;;5000514;28;20651;-37
2024/01/07 02:37:34;;;;;;;10.20;6.78;;;3.00;99.90;;;;;;5006092;28;20108;-39
2024/01/07 02:40:00;;;;;;;10.18;7.10;;;2.90;99.90;;;;;;4986810;28;20245;-39
2024/01/07 02:42:25;;;;;;;7.90;5.97;;;3.00;99.90;;;;;;5005048;28;20140;-39
2024/01/07 02:44:51;;;;;;;10.32;6.43;;;2.90;99.90;;;;;;5005653;28;20041;-41
2024/01/07 02:47:16;;;;;;;10.38;6.60;;;2.90;99.90;;;;;;5006281;28;20034;-40
2024/01/07 02:49:42;;;;;;;10.50;6.65;;;2.90;99.90;;;;;;5005100;28;20723;-38
2024/01/07 02:52:07;;;;;;;9.75;6.88;;;2.90;99.90;;;;;;5006656;28;20458;-36
2024/01/07 02:54:33;;;;;;;12.90;7.95;;;2.90;99.90;;;;;;5007355;28;20134;-37
2024/01/07 02:56:59;;;;;;;9.65;6.47;;;2.90;99.90;;;;;;5006345;28;20061;-38
2024/01/07 02:59:24;;;;;;;10.70;7.07;;;2.90;99.90;;;;;;5006390;28;20430;-37
2024/01/07 03:01:50;;;;;;;9.40;7.15;;;2.90;99.90;;;;;;5006165;28;20100;-32
2024/01/07 03:04:16;;;;;;;10.75;7.13;;;2.90;99.90;;;;;;5003048;28;20037;-34
2024/01/07 03:06:42;;;;;;;12.88;8.18;;;2.90;99.90;;;;;;5008359;28;20022;-32
2024/01/07 03:09:10;;;;;;;13.18;8.13;;;2.90;99.90;;;;;;4997815;28;20037;-35
2024/01/07 03:11:40;;;;;;;10.65;7.53;;;2.80;99.90;;;;;;5000741;28;20028;-32
2024/01/07 03:14:05;;;;;;;11.43;7.13;;;2.90;99.90;;;;;;5000900;28;20065;-36
2024/01/07 03:16:31;;;;;;;11.02;7.95;;;2.90;99.90;;;;;;5002468;28;20057;-36
2024/01/07 03:18:56;;;;;;;12.75;7.95;;;2.90;99.90;;;;;;5000557;28;20033;-33
2024/01/07 03:21:23;;;;;;;10.43;7.28;;;2.90;99.90;;;;;;4998159;28;20368;-32
2024/01/07 03:23:51;;;;;;;11.27;7.80;;;2.90;99.90;;;;;;5005039;28;20037;-34
2024/01/07 03:26:18;;;;;;;10.07;6.93;;;2.80;99.90;;;;;;4999922;28;20475;-33
2024/01/07 03:28:44;;;;;;;14.15;8.93;;;2.80;99.90;;;;;;4998931;28;20033;-31
2024/01/07 03:31:14;;;;;;;11.95;7.63;;;2.90;99.90;;;;;;5001608;28;20038;-34
2024/01/07 03:33:41;;;;;;;11.82;8.35;;;2.80;99.90;;;;;;5009204;28;20357;-32
2024/01/07 03:36:13;;;;;;;14.23;8.63;;;2.80;99.90;;;;;;5000168;28;20030;-33
2024/01/07 03:38:40;;;;;;;13.68;8.50;;;2.80;99.90;;;;;;5002115;28;20030;-31
2024/01/07 03:41:06;;;;;;;11.35;8.32;;;2.80;99.90;;;;;;4998891;28;20022;-33
2024/01/07 03:43:32;;;;;;;12.75;8.43;;;2.80;99.90;;;;;;5000666;28;20033;-36
2024/01/07 03:45:58;;;;;;;12.23;8.25;;;2.80;99.90;;;;;;4989253;28;20046;-35
2024/01/07 03:48:23;;;;;;;13.82;9.93;;;2.80;99.90;;;;;;5000622;28;20057;-32
2024/01/07 03:50:49;;;;;;;13.88;9.07;;;2.80;99.90;;;;;;4999666;28;20074;-31
2024/01/07 03:53:15;;;;;;;12.30;8.80;;;2.70;99.90;;;;;;5005779;28;20057;-34
2024/01/07 03:55:41;;;;;;;11.85;8.45;;;2.70;99.90;;;;;;5001749;28;20565;-31
2024/01/07 03:58:07;;;;;;;12.82;8.50;;;2.70;99.90;;;;;;4994211;28;20022;-31
2024/01/07 04:00:33;;;;;;;14.13;9.05;;;2.80;99.90;;;;;;4997861;28;20038;-30
2024/01/07 04:02:58;;;;;;;10.13;7.55;;;2.70;99.90;;;;;;4999849;28;20121;-31
2024/01/07 04:05:24;;;;;;;15.45;8.73;;;2.80;99.90;;;;;;5000271;28;20602;-31
2024/01/07 04:07:50;;;;;;;10.60;7.50;;;2.80;99.90;;;;;;5005590;28;20018;-31
2024/01/07 04:10:18;;;;;;;14.57;8.52;;;2.80;99.90;;;;;;4997613;28;20044;-31
2024/01/07 04:12:44;;;;;;;;;;;2.70;99.90;;;;;;5002774;28;20030;-34
2024/01/07 04:15:13;;;;;;;12.55;7.35;;;2.70;99.90;;;;;;5007313;28;19971;-34
2024/01/07 04:17:39;;;;;;;12.93;8.50;;;2.70;99.90;;;;;;4985787;28;20165;-32
2024/01/07 04:20:06;;;;;;;14.55;9.68;;;2.70;99.90;;;;;;5004865;28;20054;-34
2024/01/07 04:22:32;;;;;;;11.40;7.95;;;2.60;99.90;;;;;;4997891;28;20197;-32
2024/01/07 04:24:57;;;;;;;12.80;8.23;;;2.60;99.90;;;;;;4994492;28;20195;-33
2024/01/07 04:27:24;;;;;;;12.05;7.57;;;2.60;99.90;;;;;;5001471;28;20030;-37
2024/01/07 04:29:50;;;;;;;16.00;9.43;;;2.60;99.90;;;;;;4997498;28;20365;-32
2024/01/07 04:32:16;;;;;;;12.45;8.30;;;2.60;99.90;;;;;;4994618;28;20040;-33
2024/01/07 04:34:41;;;;;;;12.90;7.88;;;2.60;99.90;;;;;;4997335;28;20019;-31
2024/01/07 04:37:07;;;;;;;12.77;8.77;;;2.60;99.90;;;;;;5006444;28;20083;-32
2024/01/07 04:39:32;;;;;;;16.92;10.18;;;2.60;99.90;;;;;;5001908;28;20027;-32
2024/01/07 04:41:58;;;;;;;15.15;9.48;;;2.60;99.90;;;;;;4999283;28;20069;-33
2024/01/07 04:44:23;;;;;;;12.93;8.68;;;2.60;99.90;;;;;;5002243;28;20037;-31
2024/01/07 04:46:49;;;;;;;13.02;9.23;;;2.60;99.90;;;;;;5000104;28;20462;-31
2024/01/07 04:49:15;;;;;;;13.13;8.75;;;2.60;99.90;;;;;;4998408;28;20381;-33
2024/01/07 04:51:40;;;;;;;12.75;7.82;;;2.60;99.90;;;;;;5003602;28;20030;-31
2024/01/07 04:54:06;;;;;;;14.55;9.63;;;2.60;99.90;;;;;;5005595;28;20037;-32
2024/01/07 04:56:32;;;;;;;13.98;8.95;;;2.70;99.90;;;;;;5003568;28;20026;-32
2024/01/07 04:58:58;;;;;;;12.80;8.23;;;2.70;99.90;;;;;;4998095;28;20018;-32
2024/01/07 05:01:24;;;;;;;17.48;10.15;;;2.70;99.90;;;;;;4997576;28;20664;-33
2024/01/07 05:03:49;;;;;;;15.90;10.70;;;2.70;99.90;;;;;;4997769;28;20442;-33
2024/01/07 05:06:15;;;;;;;18.30;9.40;;;2.70;99.90;;;;;;5001634;28;20033;-32
2024/01/07 05:08:41;;;;;;;15.57;8.88;;;2.70;99.90;;;;;;5000097;28;20100;-33
2024/01/07 05:11:07;;;;;;;15.82;9.40;;;2.70;99.90;;;;;;5001376;28;20735;-39
2024/01/07 05:13:33;;;;;;;17.50;10.82;;;2.60;99.90;;;;;;4998744;28;20030;-31
2024/01/07 05:15:59;;;;;;;17.40;10.85;;;2.70;99.90;;;;;;5000467;28;20042;-30
2024/01/07 05:18:25;;;;;;;15.80;9.60;;;2.70;99.90;;;;;;4996341;28;20600;-32
2024/01/07 05:20:51;;;;;;;14.95;10.52;;;2.70;99.90;;;;;;4997060;28;20040;-31
2024/01/07 05:23:17;;;;;;;16.58;10.82;;;2.70;99.90;;;;;;4995245;28;20036;-31
2024/01/07 05:25:43;;;;;;;15.27;9.23;;;2.70;99.90;;;;;;5004024;28;20029;-35
2024/01/07 05:28:09;;;;;;;18.10;10.73;;;2.60;99.90;;;;;;5000423;28;20076;-35
2024/01/07 05:30:35;;;;;;;15.85;9.32;;;2.70;99.90;;;;;;4996011;28;20038;-31
2024/01/07 05:33:00;;;;;;;17.38;10.65;;;2.60;99.90;;;;;;5001853;28;20021;-33
2024/01/07 05:35:26;;;;;;;17.98;10.10;;;2.60;99.90;;;;;;4993651;28;20027;-32
2024/01/07 05:37:51;;;;;;;18.48;10.32;;;2.60;99.90;;;;;;5006976;28;20423;-37
2024/01/07 05:40:17;;;;;;;15.18;9.50;;;2.60;99.90;;;;;;4996458;28;20455;-33
2024/01/07 05:42:43;;;;;;;19.42;11.40;;;2.60;99.90;;;;;;5003097;28;20034;-39
2024/01/07 05:45:08;;;;;;;14.85;7.60;;;2.60;99.90;;;;;;5001781;28;20054;-34
2024/01/07 05:47:34;;;;;;;18.15;11.00;;;2.60;99.90;;;;;;4999543;28;20026;-37
2024/01/07 05:50:00;;;;;;;14.57;9.50;;;2.60;99.90;;;;;;4998068;28;20092;-37
2024/01/07 05:52:25;;;;;;;19.02;10.23;;;2.60;99.90;;;;;;5002575;28;20514;-36
2024/01/07 05:54:51;;;;;;;17.92;9.35;;;2.60;99.90;;;;;;4995050;28;20038;-38
2024/01/07 05:57:16;;;;;;;19.92;11.32;;;2.60;99.90;;;;;;4991491;28;20468;-39
2024/01/07 05:59:44;;;;;;;16.95;10.73;;;2.60;99.90;;;;;;5002677;28;20034;-39
2024/01/07 06:02:09;;;;;;;16.40;9.90;;;2.70;99.90;;;;;;4991502;28;20100;-37
2024/01/07 06:04:37;;;;;;;16.98;9.80;;;2.60;99.90;;;;;;5001904;28;20411;-40
2024/01/07 06:07:03;;;;;;;20.85;11.70;;;2.60;99.90;;;;;;5001176;28;20030;-37
2024/01/07 06:09:28;;;;;;;17.00;9.90;;;2.60;99.90;;;;;;5008977;28;20462;-38
2024/01/07 06:11:55;;;;;;;16.98;9.48;;;2.60;99.90;;;;;;4999824;28;20022;-37
2024/01/07 06:14:21;;;;;;;19.15;10.52;;;2.60;99.90;;;;;;4998031;28;20026;-39
2024/01/07 06:16:47;;;;;;;17.75;10.65;;;2.60;99.90;;;;;;4998174;28;20326;-39
2024/01/07 06:19:14;;;;;;;18.45;10.98;;;2.60;99.90;;;;;;4997811;28;20026;-39
2024/01/07 06:21:40;;;;;;;15.73;9.75;;;2.60;99.90;;;;;;5006271;28;20048;-38
2024/01/07 06:24:07;;;;;;;13.68;9.10;;;2.60;99.90;;;;;;4999914;28;20026;-38
2024/01/07 06:26:33;;;;;;;20.43;10.70;;;2.60;99.90;;;;;;4996441;28;20384;-38
2024/01/07 06:28:59;;;;;;;19.27;10.05;;;2.60;99.90;;;;;;4996323;28;20026;-40
2024/01/07 06:31:25;;;;;;;19.08;11.15;;;2.60;99.90;;;;;;5004230;28;20046;-32
2024/01/07 06:33:51;;;;;;;18.27;10.82;;;2.60;99.90;;;;;;5000453;28;20101;-30
2024/01/07 06:36:17;;;;;;;18.08;10.77;;;2.60;99.90;;;;;;5004337;28;20080;-31
2024/01/07 06:38:43;;;;;;;20.67;12.25;;;2.60;99.90;;;;;;4998696;28;20424;-31
2024/01/07 06:41:10;;;;;;;17.55;11.43;;;2.60;99.90;;;;;;5005132;28;20120;-35
2024/01/07 06:43:36;;;;;;;19.92;11.57;;;2.50;99.90;;;;;;4994939;28;20026;-36
2024/01/07 06:46:01;;;;;;;22.98;11.50;;;2.60;99.90;;;;;;4998080;28;20096;-31
2024/01/07 06:48:27;;;;;;;17.90;10.57;;;2.50;99.90;;;;;;4998400;28;20060;-34
2024/01/07 06:50:52;;;;;;;16.73;10.90;;;2.50;99.90;;;;;;5003619;28;20439;-36
2024/01/07 06:53:18;;;;;;;20.88;10.80;;;2.50;99.90;;;;;;4999380;28;20387;-38
2024/01/07 06:55:43;;;;;;;24.73;12.15;;;2.50;99.90;;;;;;4995684;28;20037;-39
2024/01/07 06:58:09;;;;;;;15.63;9.55;;;2.50;99.90;;;;;;4996439;28;20132;-37
2024/01/07 07:00:35;;;;;;;15.75;8.73;;;2.50;99.90;;;;;;5008247;28;20097;-40
2024/01/07 07:03:00;;;;;;;16.13;8.82;;;2.40;99.90;;;;;;4994571;28;20034;-39
2024/01/07 07:05:26;;;;;;;21.92;10.65;;;2.50;99.90;;;;;;4995016;28;20530;-38
2024/01/07 07:07:51;;;;;;;22.73;12.35;;;2.50;99.90;;;;;;5004487;28;20313;-37
2024/01/07 07:10:17;;;;;;;21.42;11.38;;;2.50;99.90;;;;;;5000766;28;20117;-39
2024/01/07 07:12:42;;;;;;;17.42;9.73;;;2.50;99.90;;;;;;4999559;28;20018;-39
2024/01/07 07:15:09;;;;;;;18.23;10.90;;;2.40;99.90;;;;;;5002015;28;20030;-36
2024/01/07 07:17:36;;;;;;;19.67;11.65;;;2.50;99.90;;;;;;5000630;28;20026;-38
2024/01/07 07:20:02;;;;;;;18.67;10.90;;;2.50;99.90;;;;;;5003595;28;20088;-37
2024/01/07 07:22:28;;;;;;;19.15;11.30;;;2.50;99.90;;;;;;5000504;28;20030;-39
2024/01/07 07:24:54;;;;;;;18.55;9.48;;;2.40;99.90;;;;;;5008890;28;20029;-40
2024/01/07 07:27:19;;;;;;;17.52;10.30;;;2.50;99.90;;;;;;4997509;28;20072;-37
2024/01/07 07:29:45;;;;;;;18.17;10.88;;;2.50;99.90;;;;;;5003107;28;20030;-39
2024/01/07 07:32:10;;;;;;;19.48;12.10;;;2.40;99.90;;;;;;5000604;28;20092;-35
2024/01/07 07:34:36;;;;;;;19.23;12.07;;;2.50;99.90;;;;;;5002597;28;20018;-38
2024/01/07 07:37:03;;;;;;;19.17;10.23;;;2.40;99.90;;;;;;5000709;28;20022;-36
2024/01/07 07:39:28;;;;;;;16.42;10.30;;;2.40;99.90;;;;;;4996734;28;20026;-39
2024/01/07 07:41:54;;;;;;;20.35;10.05;;;2.40;99.90;;;;;;5008212;28;20010;-35
2024/01/07 07:44:19;;;;;;;19.95;10.70;;;2.40;99.90;;;;;;4998887;28;20109;-32
2024/01/07 07:46:45;;;;;;;17.23;9.93;;;2.40;99.90;;;;;;5002948;28;20038;-31
2024/01/07 07:49:11;;;;;;;17.27;10.15;;;2.40;99.90;;;;;;5002124;28;20152;-32
2024/01/07 07:51:36;;;;;;;15.20;8.57;;;2.40;99.90;;;;;;5008047;28;20034;-35
2024/01/07 07:54:03;;;;;;;12.85;9.10;;;2.40;99.90;;;;;;4990463;28;20081;-31
2024/01/07 07:56:29;;;;;;;18.38;11.88;;;2.40;99.90;;;;;;4998510;28;20077;-32
2024/01/07 07:58:54;;;;;;;16.52;10.15;;;2.40;99.90;;;;;;5005979;28;20508;-32
2024/01/07 08:01:20;;;;;;;16.98;10.40;;;2.40;99.90;;;;;;5001543;28;20031;-38
2024/01/07 08:03:46;;;;;;;19.20;11.27;;;2.40;99.90;;;;;;4996183;28;20034;-38
2024/01/07 08:06:11;;;;;;;16.20;10.32;;;2.40;99.90;;;;;;4997798;28;20033;-36
2024/01/07 08:08:37;;;;;;;17.75;10.95;;;2.40;99.90;;;;;;4994955;28;20133;-39
2024/01/07 08:11:05;;;;;;;16.60;10.02;;;2.40;99.90;;;;;;5006981;28;20029;-37
2024/01/07 08:13:31;;;;;;;19.88;10.07;;;2.30;99.90;;;;;;4998411;28;20030;-38
2024/01/07 08:15:56;;;;;;;14.07;7.85;;;2.30;99.90;;;;;;5007554;28;20033;-38
2024/01/07 08:18:22;;;;;;;15.80;9.65;;;2.30;99.90;;;;;;4992874;28;20494;-40
2024/01/07 08:20:48;;;;;;;16.00;9.68;;;2.30;99.90;;;;;;5004375;28;20026;-40
2024/01/07 08:23:13;;;;;;;16.10;9.68;;;2.30;99.90;;;;;;5001094;28;20054;-37
2024/01/07 08:25:39;;;;;;;16.83;9.20;;;2.30;99.90;;;;;;5000836;28;20036;-38
2024/01/07 08:28:05;;;;;;;21.40;10.82;;;2.30;99.90;;;;;;5001732;28;20065;-40
2024/01/07 08:30:30;;;;;;;13.95;8.00;;;2.30;99.90;;;;;;4999478;28;20117;-38
2024/01/07 08:32:56;;;;;;;17.90;9.70;;;2.20;99.90;;;;;;5005912;28;20021;-36
2024/01/07 08:35:22;;;;;;;20.23;10.55;;;2.30;99.90;;;;;;5001553;28;20029;-38
2024/01/07 08:37:47;;;;;;;14.77;8.68;;;2.30;99.90;;;;;;5006263;28;20017;-40
2024/01/07 08:40:13;;;;;;;18.98;10.93;;;2.30;99.90;;;;;;5006977;28;20044;-38
2024/01/07 08:42:39;;;;;;;16.17;9.65;;;2.30;99.90;;;;;;5005935;28;20160;-39
2024/01/07 08:45:05;;;;;;;18.48;10.38;;;2.30;99.90;;;;;;5002796;28;20049;-40
2024/01/07 08:47:31;;;;;;;15.50;10.02;;;2.30;99.90;;;;;;4995540;28;20506;-38
2024/01/07 08:49:57;;;;;;;20.23;10.15;;;2.30;99.90;;;;;;5002756;28;20026;-38
2024/01/07 08:52:23;;;;;;;17.67;9.55;;;2.30;99.90;;;;;;5001514;28;20034;-41
2024/01/07 08:54:49;;;;;;;15.15;9.70;;;2.30;99.90;;;;;;4993954;28;20026;-39
2024/01/07 08:57:15;;;;;;;17.83;10.43;;;2.30;99.90;;;;;;4997263;28;20081;-41
2024/01/07 08:59:40;;;;;;;19.67;10.52;;;2.20;99.90;;;;;;5005104;28;20033;-41
2024/01/07 09:02:06;;;;;;;13.98;8.43;;;2.20;99.90;;;;;;5000775;28;20037;-41
2024/01/07 09:04:33;;;;;;;17.73;8.82;;;2.20;99.90;;;;;;5000639;28;20065;-40
2024/01/07 09:06:59;;;;;;;14.52;7.18;;;2.20;99.90;;;;;;5001765;28;20057;-39
2024/01/07 09:09:24;;;;;;;18.95;9.32;;;2.10;99.90;;;;;;5003966;28;20091;-42
2024/01/07 09:11:51;;;;;;;11.38;6.88;;;2.10;99.90;;;;;;5002628;28;20028;-32
2024/01/07 09:14:17;;;;;;;14.18;9.38;;;2.10;99.90;;;;;;5004042;28;20026;-34
2024/01/07 09:16:43;;;;;;;16.27;9.20;;;2.10;99.90;;;;;;5004149;28;20439;-33
2024/01/07 09:19:08;;;;;;;15.30;7.70;;;2.00;99.90;;;;;;5003865;28;20049;-34
2024/01/07 09:21:34;;;;;;;19.13;10.65;;;2.00;99.90;;;;;;5004620;28;20042;-35
2024/01/07 09:24:00;;;;;;;16.77;9.93;;;2.00;99.90;;;;;;5003718;28;20037;-32
2024/01/07 09:26:25;;;;;;;17.10;10.18;;;2.00;99.90;;;;;;5003311;28;20033;-37
2024/01/07 09:28:51;;;;;;;20.60;10.05;;;1.90;99.90;;;;;;5003365;28;20108;-32
2024/01/07 09:31:17;;;;;;;21.75;10.80;;;1.90;99.90;;;;;;5002529;28;20716;-33
2024/01/07 09:33:43;;;;;;;17.40;8.63;;;1.90;99.90;;;;;;5004096;28;20037;-36
2024/01/07 09:36:08;;;;;;;18.52;10.35;;;2.00;99.90;;;;;;5003858;28;20038;-35
2024/01/07 09:38:34;;;;;;;15.85;9.10;;;1.90;99.90;;;;;;5003812;28;20438;-33
2024/01/07 09:41:00;;;;;;;15.27;9.13;;;2.00;99.90;;;;;;5002554;28;20026;-32
2024/01/07 09:43:25;;;;;;;18.95;9.90;;;1.90;99.90;;;;;;4984108;28;20117;-36
2024/01/07 09:45:53;;;;;;;16.58;9.05;;;1.90;99.90;;;;;;4985410;28;20037;-32
2024/01/07 09:48:18;;;;;;;15.63;9.55;;;1.90;99.90;;;;;;5003509;28;20558;-33
2024/01/07 09:50:44;;;;;;;15.93;8.60;;;1.90;99.90;;;;;;5003590;28;20026;-32
2024/01/07 09:53:18;;;;;;;17.00;9.27;;;1.90;99.90;;;;;;5002114;28;20396;-35
2024/01/07 09:56:04;;;;;;;13.73;8.52;;;1.90;99.90;;;;;;5003808;28;20476;-33
2024/01/07 09:58:30;;;;;;;14.63;9.80;;;1.90;99.90;;;;;;5003218;28;20030;-37
2024/01/07 10:00:55;;;;;;;18.98;9.40;;;1.90;99.90;;;;;;5000567;28;20508;-36
2024/01/07 10:03:21;;;;;;;15.05;8.27;;;1.90;99.90;;;;;;5005428;28;20026;-41
2024/01/07 10:05:46;;;;;;;16.38;8.90;;;1.90;99.90;;;;;;4998991;28;20026;-38
2024/01/07 10:08:12;;;;;;;13.20;7.38;;;1.80;99.90;;;;;;5001928;28;20033;-39
2024/01/07 10:10:40;;;;;;;14.45;8.27;;;1.80;99.90;;;;;;4995037;28;20107;-41
2024/01/07 10:13:08;;;;;;;15.95;7.82;;;1.80;99.90;;;;;;5002575;28;20045;-39
2024/01/07 10:15:34;;;;;;;12.15;7.97;;;1.70;99.90;;;;;;5002196;28;20092;-38
2024/01/07 10:18:05;;;;;;;14.70;8.55;;;1.70;99.90;;;;;;5003088;28;20471;-42
2024/01/07 10:20:33;;;;;;;14.68;8.32;;;1.70;99.90;;;;;;5002610;28;20041;-41
2024/01/07 10:22:59;;;;;;;16.92;9.80;;;1.60;99.90;;;;;;4984379;28;20042;-40
2024/01/07 10:25:25;;;;;;;20.55;9.65;;;1.60;99.90;;;;;;4997781;28;20035;-40
2024/01/07 10:27:51;;;;;;;17.73;8.18;;;1.60;99.90;;;;;;4997078;28;20108;-38
2024/01/07 10:30:17;;;;;;;13.82;7.68;;;1.60;99.90;;;;;;5000846;28;20037;-40
2024/01/07 10:32:43;;;;;;;14.23;8.48;;;1.60;99.90;;;;;;5003329;28;20034;-38
2024/01/07 10:35:12;;;;;;;18.20;9.75;;;1.60;99.90;;;;;;5001530;28;20041;-37
2024/01/07 10:37:39;;;;;;;14.82;8.82;;;1.50;99.90;;;;;;5003555;28;20145;-39
2024/01/07 10:40:07;;;;;;;14.05;7.53;;;1.50;99.90;;;;;;5007871;28;20706;-40
2024/01/07 10:42:33;;;;;;;13.68;8.43;;;1.50;99.90;;;;;;5004131;28;20639;-39
2024/01/07 10:45:00;;;;;;;15.23;8.25;;;1.50;99.90;;;;;;4999443;28;20781;-40
2024/01/07 10:47:31;;;;;;;16.15;9.02;;;1.50;99.90;;;;;;5004860;28;20038;-39
2024/01/07 10:50:02;;;;;;;10.60;6.60;;;1.40;99.90;;;;;;5002716;28;20029;-40
2024/01/07 10:52:28;;;;;;;13.98;7.63;;;1.40;99.90;;;;;;5005057;28;20029;-39
2024/01/07 10:54:57;;;;;;;13.57;7.97;;;1.40;99.90;;;;;;5001488;28;20384;-38
2024/01/07 10:57:38;;;;;;;12.73;7.55;;;1.40;99.90;;;;;;5007354;28;20021;-37
2024/01/07 11:00:07;;;;;;;12.07;6.68;;;1.40;99.90;;;;;;4999032;28;20488;-40
2024/01/07 11:02:40;;;;;;;12.20;6.82;;;1.30;99.90;;;;;;4997858;28;20034;-39
2024/01/07 11:05:11;;;;;;;12.02;7.10;;;1.30;99.90;;;;;;5006540;28;20038;-39
2024/01/07 11:07:44;;;;;;;13.27;7.00;;;1.30;99.90;;;;;;5002413;28;20026;-38
2024/01/07 11:10:21;;;;;;;15.82;8.63;;;1.30;99.90;;;;;;5003417;28;20029;-39
2024/01/07 11:12:58;;;;;;;13.77;7.65;;;1.30;99.90;;;;;;5001330;28;20434;-32
2024/01/07 11:15:48;;;;;;;13.65;7.25;;;1.30;99.90;;;;;;4999455;28;20105;-32
2024/01/07 11:18:20;;;;;;;11.50;5.93;;;1.30;99.90;;;;;;5004012;28;20030;-32
2024/01/07 11:20:50;;;;;;;12.93;7.25;;;1.30;99.90;;;;;;5008726;28;20033;-33
2024/01/07 11:23:32;;;;;;;10.82;5.63;;;1.30;99.90;;;;;;5008162;28;20120;-33
2024/01/07 11:25:59;;;;;;;13.07;7.57;;;1.30;99.90;;;;;;5002923;28;20398;-32
2024/01/07 11:29:00;;;;;;;13.60;8.10;;;1.30;99.90;;;;;;5006531;28;20052;-33
2024/01/07 11:31:50;;;;;;;15.52;7.38;;;1.20;99.90;;;;;;4944513;28;20050;-39
2024/01/07 11:34:43;;;;;;;15.52;7.82;;;1.20;99.90;;;;;;4998618;28;20045;-38
2024/01/07 11:37:11;;;;;;;12.23;7.32;;;1.20;99.90;;;;;;4996002;28;20041;-39
2024/01/07 11:39:37;;;;;;;;;;;1.20;99.90;;;;;;4995448;28;20026;-40
2024/01/07 11:42:04;;;;;;;12.73;7.65;;;1.20;99.90;;;;;;5000073;28;19937;-40
2024/01/07 11:44:29;;;;;;;10.60;6.57;;;1.20;99.90;;;;;;5005501;28;20021;-45
2024/01/07 11:46:56;;;;;;;13.15;7.50;;;1.20;99.90;;;;;;4996957;28;20499;-39
2024/01/07 11:49:21;;;;;;;13.00;7.32;;;1.20;99.90;;;;;;4998343;28;20344;-40
2024/01/07 11:51:47;;;;;;;12.93;6.68;;;1.20;99.90;;;;;;4998763;28;20057;-40
2024/01/07 11:54:13;;;;;;;12.80;6.97;;;1.10;99.90;;;;;;4996165;28;20044;-40
2024/01/07 11:56:39;;;;;;;17.63;8.82;;;1.10;99.90;;;;;;4998896;28;20038;-39
2024/01/07 11:59:06;;;;;;;12.40;7.53;;;1.20;99.90;;;;;;5007445;28;20114;-40
2024/01/07 12:01:31;;;;;;;11.15;7.85;;;1.10;99.90;;;;;;5003107;28;20042;-40
2024/01/07 12:03:57;;;;;;;16.27;9.57;;;1.10;99.90;;;;;;5002065;28;20516;-39
2024/01/07 12:06:24;;;;;;;10.70;7.25;;;1.10;99.90;;;;;;4997933;28;20025;-40
2024/01/07 12:08:50;;;;;;;15.23;8.88;;;1.10;99.90;;;;;;5000693;28;20037;-39
2024/01/07 12:11:17;;;;;;;11.98;7.68;;;1.00;99.90;;;;;;5000362;28;20034;-39
2024/01/07 12:13:43;;;;;;;13.10;7.40;;;1.00;99.90;;;;;;5002575;28;20046;-41
2024/01/07 12:16:10;;;;;;;17.63;10.18;;;1.00;99.90;;;;;;5002028;28;20053;-36
2024/01/07 12:18:39;;;;;;;14.80;7.28;;;1.00;99.90;;;;;;5000067;28;20030;-39
2024/01/07 12:21:05;;;;;;;17.58;9.60;;;0.90;99.90;;;;;;4999671;28;20545;-39
2024/01/07 12:23:36;;;;;;;15.65;8.95;;;0.90;99.90;;;;;;5000229;28;20042;-39
2024/01/07 12:26:11;;;;;;;14.90;7.82;;;0.90;99.90;;;;;;4999299;28;20120;-40
2024/01/07 12:28:37;;;;;;;14.75;9.02;;;0.90;99.90;;;;;;5000982;28;20026;-41
2024/01/07 12:31:04;;;;;;;18.50;8.85;;;1.00;99.90;;;;;;4980044;28;20049;-41
2024/01/07 12:33:31;;;;;;;13.45;7.78;;;0.90;99.90;;;;;;4999396;28;20117;-38
2024/01/07 12:36:01;;;;;;;13.10;7.35;;;1.00;99.90;;;;;;4980866;28;20029;-39
2024/01/07 12:38:30;;;;;;;16.48;9.38;;;0.90;99.90;;;;;;4999332;28;20057;-35
2024/01/07 12:40:56;;;;;;;17.30;8.65;;;0.90;99.90;;;;;;5002842;28;20072;-39
2024/01/07 12:43:22;;;;;;;19.33;9.90;;;0.90;99.90;;;;;;4997175;28;20037;-35